createdAt,value
2023-03-29T00:01:01.602Z,5.80
2023-03-29T00:03:30.763Z,5.80
2023-03-29T00:06:03.925Z,5.70
2023-03-29T00:08:34.005Z,5.80
2023-03-29T00:11:04.408Z,5.70
2023-03-29T00:13:32.961Z,5.80
2023-03-29T00:16:01.302Z,5.80
2023-03-29T00:18:29.532Z,5.80
2023-03-29T00:20:58.138Z,5.70
2023-03-29T00:23:27.860Z,5.70
2023-03-29T00:25:56.676Z,5.70
2023-03-29T00:28:25.475Z,5.70
2023-03-29T00:30:55.512Z,5.70
2023-03-29T00:33:23.809Z,5.70
2023-03-29T00:35:54.456Z,5.70
2023-03-29T00:38:23.017Z,5.70
2023-03-29T00:40:52.805Z,5.70
2023-03-29T00:43:21.068Z,5.60
2023-03-29T00:45:49.317Z,5.60
2023-03-29T00:48:19.842Z,5.60
2023-03-29T00:50:53.312Z,5.60
2023-03-29T00:53:26.248Z,5.60
2023-03-29T00:56:02.616Z,5.50
2023-03-29T00:58:36.754Z,5.40
2023-03-29T01:01:08.831Z,5.40
2023-03-29T01:03:46.263Z,5.40
2023-03-29T01:06:17.441Z,5.40
2023-03-29T01:08:49.595Z,5.30
2023-03-29T01:11:22.250Z,5.30
2023-03-29T01:13:54.094Z,5.30
2023-03-29T01:16:23.155Z,5.30
2023-03-29T01:18:52.216Z,5.30
2023-03-29T01:21:24.600Z,5.30
2023-03-29T01:24:18.791Z,5.40
2023-03-29T01:26:56.847Z,5.50
2023-03-29T01:29:32.782Z,5.50
2023-03-29T01:32:06.018Z,5.60
2023-03-29T01:34:39.521Z,5.60
2023-03-29T01:37:12.435Z,5.60
2023-03-29T01:39:40.863Z,5.60
2023-03-29T01:42:18.103Z,5.60
2023-03-29T01:44:55.592Z,5.60
2023-03-29T01:47:31.599Z,5.70
2023-03-29T01:50:08.820Z,5.70
2023-03-29T01:52:41.204Z,5.70
2023-03-29T01:55:14.288Z,5.70
2023-03-29T01:57:45.191Z,5.70
2023-03-29T02:00:17.641Z,5.70
2023-03-29T02:02:47.321Z,5.70
2023-03-29T02:05:17.736Z,5.70
2023-03-29T02:07:48.738Z,5.70
2023-03-29T02:10:18.562Z,5.70
2023-03-29T02:12:46.993Z,5.70
2023-03-29T02:15:19.772Z,5.70
2023-03-29T02:17:49.369Z,5.60
2023-03-29T02:20:23.595Z,5.70
2023-03-29T02:22:59.642Z,5.70
2023-03-29T02:25:27.927Z,5.70
2023-03-29T02:27:56.690Z,5.70
2023-03-29T02:30:31.417Z,5.70
2023-03-29T02:33:06.053Z,5.70
2023-03-29T02:35:39.199Z,5.80
2023-03-29T02:38:11.392Z,5.80
2023-03-29T02:40:42.604Z,5.80
2023-03-29T02:43:12.958Z,5.90
2023-03-29T02:45:44.099Z,5.90
2023-03-29T02:48:19.111Z,5.80
2023-03-29T02:50:51.170Z,5.90
2023-03-29T02:53:25.562Z,5.90
2023-03-29T02:55:54.168Z,5.90
2023-03-29T02:58:28.789Z,6.00
2023-03-29T03:01:01.285Z,5.90
2023-03-29T03:03:30.225Z,6.00
2023-03-29T03:06:01.654Z,5.90
2023-03-29T03:08:32.199Z,5.90
2023-03-29T03:11:00.919Z,6.00
2023-03-29T03:13:30.873Z,6.00
2023-03-29T03:16:03.230Z,6.00
2023-03-29T03:18:31.649Z,6.00
2023-03-29T03:21:03.130Z,6.00
2023-03-29T03:23:32.033Z,6.00
2023-03-29T03:26:01.245Z,6.00
2023-03-29T03:28:32.253Z,6.00
2023-03-29T03:31:03.394Z,6.10
2023-03-29T03:34:00.977Z,6.00
2023-03-29T03:36:37.934Z,6.10
2023-03-29T03:39:07.288Z,6.10
2023-03-29T03:41:36.552Z,6.10
2023-03-29T03:44:04.836Z,6.10
2023-03-29T03:46:34.815Z,6.10
2023-03-29T03:49:06.360Z,6.20
2023-03-29T03:51:39.529Z,6.20
2023-03-29T03:54:08.138Z,6.20
2023-03-29T03:56:36.367Z,6.20
2023-03-29T03:59:18.448Z,6.20
2023-03-29T04:02:03.306Z,6.20
2023-03-29T04:04:31.753Z,6.30
2023-03-29T04:07:07.356Z,6.30
2023-03-29T04:09:35.714Z,6.30
2023-03-29T04:12:36.120Z,6.40
2023-03-29T04:15:05.127Z,6.40
2023-03-29T04:17:35.899Z,6.50
2023-03-29T04:20:12.845Z,6.50
2023-03-29T04:22:42.816Z,6.50
2023-03-29T04:25:12.296Z,6.60
2023-03-29T04:27:50.105Z,6.60
2023-03-29T04:30:38.666Z,6.60
2023-03-29T04:33:11.435Z,6.60
2023-03-29T04:35:43.555Z,6.70
2023-03-29T04:38:16.797Z,6.70
2023-03-29T04:40:47.159Z,6.80
2023-03-29T04:43:40.290Z,6.80
2023-03-29T04:46:22.000Z,6.80
2023-03-29T04:49:24.588Z,6.80
2023-03-29T04:51:54.526Z,6.80
2023-03-29T04:54:26.625Z,6.80
2023-03-29T04:57:18.138Z,6.80
2023-03-29T05:00:27.060Z,6.80
2023-03-29T05:03:25.618Z,6.80
2023-03-29T05:06:06.942Z,6.80
2023-03-29T05:08:38.441Z,6.80
2023-03-29T05:11:29.253Z,6.80
2023-03-29T05:14:02.304Z,6.90
2023-03-29T05:16:34.671Z,7.00
2023-03-29T05:19:03.154Z,7.00
2023-03-29T05:21:35.225Z,7.00
2023-03-29T05:24:08.065Z,6.90
2023-03-29T05:27:02.476Z,6.90
2023-03-29T05:29:34.054Z,6.90
2023-03-29T05:32:31.427Z,7.00
2023-03-29T05:34:59.820Z,6.90
2023-03-29T05:37:29.790Z,7.00
2023-03-29T05:40:05.651Z,7.00
2023-03-29T05:42:38.857Z,7.00
2023-03-29T05:45:11.602Z,7.00
2023-03-29T05:47:42.050Z,7.00
2023-03-29T05:50:11.508Z,7.00
2023-03-29T05:52:43.060Z,7.00
2023-03-29T05:55:11.784Z,7.10
2023-03-29T05:57:41.521Z,7.00
2023-03-29T06:00:20.115Z,7.10
2023-03-29T06:02:48.622Z,7.20
2023-03-29T06:05:17.853Z,7.20
2023-03-29T06:07:59.179Z,7.20
2023-03-29T06:11:04.465Z,7.20
2023-03-29T06:13:56.012Z,7.20
2023-03-29T06:16:24.430Z,7.20
2023-03-29T06:18:53.429Z,7.30
2023-03-29T06:21:22.285Z,7.30
2023-03-29T06:23:52.311Z,7.20
2023-03-29T06:26:20.776Z,7.20
2023-03-29T06:28:52.052Z,7.30
2023-03-29T06:31:21.306Z,7.30
2023-03-29T06:33:54.415Z,7.40
2023-03-29T06:36:51.006Z,7.40
2023-03-29T06:39:23.397Z,7.50
2023-03-29T06:42:20.613Z,7.60
2023-03-29T06:45:16.090Z,7.70
2023-03-29T06:47:48.883Z,7.70
2023-03-29T06:50:18.341Z,7.70
2023-03-29T06:53:05.433Z,7.90
2023-03-29T06:55:37.126Z,8.00
2023-03-29T06:58:31.186Z,8.00
2023-03-29T07:01:07.169Z,8.10
2023-03-29T07:03:49.360Z,8.10
2023-03-29T07:06:22.345Z,8.20
2023-03-29T07:08:52.622Z,8.20
2023-03-29T07:11:42.777Z,8.20
2023-03-29T07:14:23.268Z,8.40
2023-03-29T07:16:53.523Z,8.40
2023-03-29T07:19:30.355Z,8.50
2023-03-29T07:22:22.795Z,8.50
2023-03-29T07:24:55.559Z,8.60
2023-03-29T07:27:26.402Z,8.60
2023-03-29T07:29:54.760Z,8.60
2023-03-29T07:32:24.129Z,8.70
2023-03-29T07:35:12.141Z,8.90
2023-03-29T07:37:42.876Z,8.90
2023-03-29T07:40:16.215Z,9.10
2023-03-29T07:43:01.237Z,9.10
2023-03-29T07:45:33.360Z,9.20
2023-03-29T07:48:07.050Z,9.20
2023-03-29T07:50:53.870Z,9.20
2023-03-29T07:53:29.879Z,9.20
2023-03-29T07:56:00.342Z,9.20
2023-03-29T07:58:50.501Z,9.20
2023-03-29T08:01:20.429Z,9.30
2023-03-29T08:04:24.352Z,9.30
2023-03-29T08:07:31.302Z,9.30
2023-03-29T08:10:24.276Z,9.30
2023-03-29T08:12:53.642Z,9.40
2023-03-29T08:15:30.621Z,9.30
2023-03-29T08:17:58.883Z,9.40
2023-03-29T08:20:28.073Z,9.50
2023-03-29T08:23:02.013Z,9.50
2023-03-29T08:25:47.286Z,9.60
2023-03-29T08:28:16.983Z,9.70
2023-03-29T08:30:50.345Z,9.70
2023-03-29T08:33:18.913Z,9.70
2023-03-29T08:35:52.684Z,9.70
2023-03-29T08:38:31.823Z,9.70
2023-03-29T08:41:00.227Z,9.80
2023-03-29T08:43:58.411Z,9.90
2023-03-29T08:47:02.045Z,10.00
2023-03-29T08:49:38.762Z,10.20
2023-03-29T08:52:17.682Z,10.20
2023-03-29T08:54:48.144Z,10.20
2023-03-29T08:57:33.047Z,10.20
2023-03-29T09:00:10.592Z,10.30
2023-03-29T09:02:44.733Z,10.50
2023-03-29T09:05:22.746Z,10.60
2023-03-29T09:08:16.147Z,10.60
2023-03-29T09:10:48.887Z,10.60
2023-03-29T09:13:32.801Z,10.60
2023-03-29T09:16:08.038Z,10.60
2023-03-29T09:18:57.524Z,10.50
2023-03-29T09:21:34.645Z,10.50
2023-03-29T09:24:21.855Z,10.50
2023-03-29T09:27:12.078Z,10.50
2023-03-29T09:30:04.690Z,10.60
2023-03-29T09:32:53.455Z,10.70
2023-03-29T09:35:33.085Z,10.60
2023-03-29T09:38:03.934Z,10.60
2023-03-29T09:40:39.477Z,10.40
2023-03-29T09:43:15.812Z,10.30
2023-03-29T09:45:48.123Z,10.30
2023-03-29T09:48:19.429Z,10.10
2023-03-29T09:50:55.095Z,10.00
2023-03-29T09:53:23.502Z,10.10
2023-03-29T09:56:02.700Z,10.00
2023-03-29T09:58:44.821Z,10.00
2023-03-29T10:01:17.384Z,10.20
2023-03-29T10:03:50.638Z,10.20
2023-03-29T10:06:25.556Z,10.40
2023-03-29T10:08:59.320Z,10.40
2023-03-29T10:11:38.035Z,10.60
2023-03-29T10:14:13.428Z,10.90
2023-03-29T10:16:46.226Z,11.10
2023-03-29T10:19:20.834Z,11.20
2023-03-29T10:21:51.630Z,11.30
2023-03-29T10:24:21.802Z,11.30
2023-03-29T10:26:55.420Z,11.50
2023-03-29T10:29:25.049Z,11.50
2023-03-29T10:31:53.695Z,11.50
2023-03-29T10:34:28.013Z,11.50
2023-03-29T10:37:00.962Z,11.60
2023-03-29T10:39:33.948Z,11.50
2023-03-29T10:42:04.930Z,11.50
2023-03-29T10:44:36.036Z,11.40
2023-03-29T10:47:19.654Z,11.50
2023-03-29T10:49:53.194Z,11.60
2023-03-29T10:52:24.757Z,11.60
2023-03-29T10:54:55.012Z,11.70
2023-03-29T10:57:42.475Z,11.90
2023-03-29T11:00:19.691Z,12.00
2023-03-29T11:03:16.236Z,11.70
2023-03-29T11:05:51.882Z,11.70
2023-03-29T11:08:36.066Z,11.60
2023-03-29T11:11:23.333Z,11.60
2023-03-29T11:13:59.955Z,11.60
2023-03-29T11:16:34.947Z,11.50
2023-03-29T11:19:25.099Z,11.70
2023-03-29T11:22:02.402Z,12.00
2023-03-29T11:24:46.815Z,12.00
2023-03-29T11:27:27.495Z,12.00
2023-03-29T11:30:07.710Z,12.10
2023-03-29T11:32:43.918Z,12.00
2023-03-29T11:35:28.463Z,12.10
2023-03-29T11:38:03.157Z,12.10
2023-03-29T11:40:44.810Z,12.00
2023-03-29T11:43:18.894Z,12.10
2023-03-29T11:45:52.440Z,12.10
2023-03-29T11:48:25.370Z,12.20
2023-03-29T11:50:57.792Z,12.50
2023-03-29T11:53:31.144Z,12.90
2023-03-29T11:56:08.751Z,13.20
2023-03-29T11:58:42.511Z,13.30
2023-03-29T12:01:15.148Z,13.60
2023-03-29T12:03:48.751Z,13.60
2023-03-29T12:06:23.007Z,13.50
2023-03-29T12:08:55.785Z,13.60
2023-03-29T12:11:31.729Z,13.60
2023-03-29T12:14:04.005Z,13.60
2023-03-29T12:16:37.183Z,13.60
2023-03-29T12:19:14.175Z,13.70
2023-03-29T12:21:43.510Z,13.60
2023-03-29T12:24:14.348Z,13.60
2023-03-29T12:27:00.130Z,13.50
2023-03-29T12:29:47.798Z,13.50
2023-03-29T12:32:33.245Z,13.60
2023-03-29T12:35:48.635Z,13.70
2023-03-29T12:38:48.093Z,13.90
2023-03-29T12:41:53.524Z,14.10
2023-03-29T12:44:49.965Z,14.00
2023-03-29T12:47:27.845Z,14.00
2023-03-29T12:49:58.338Z,14.00
2023-03-29T12:52:31.157Z,13.90
2023-03-29T12:55:02.884Z,13.80
2023-03-29T12:57:43.757Z,13.90
2023-03-29T13:00:21.055Z,14.00
2023-03-29T13:03:02.895Z,14.20
2023-03-29T13:05:33.978Z,14.20
2023-03-29T13:08:20.667Z,14.30
2023-03-29T13:10:54.766Z,14.50
2023-03-29T13:13:28.904Z,14.50
2023-03-29T13:15:58.031Z,14.50
2023-03-29T13:18:49.336Z,14.40
2023-03-29T13:21:24.491Z,14.40
2023-03-29T13:24:02.583Z,14.40
2023-03-29T13:26:47.625Z,14.40
2023-03-29T13:29:34.391Z,14.40
2023-03-29T13:32:12.278Z,14.30
2023-03-29T13:34:47.526Z,14.10
2023-03-29T13:37:28.492Z,14.00
2023-03-29T13:39:57.226Z,13.80
2023-03-29T13:42:27.804Z,13.80
2023-03-29T13:45:12.114Z,13.70
2023-03-29T13:47:54.862Z,13.70
2023-03-29T13:50:36.321Z,13.70
2023-03-29T13:53:11.036Z,13.80
2023-03-29T13:55:46.561Z,13.90
2023-03-29T13:58:21.239Z,14.10
2023-03-29T14:00:55.138Z,14.40
2023-03-29T14:03:29.884Z,14.60
2023-03-29T14:06:01.461Z,14.80
2023-03-29T14:08:34.053Z,14.70
2023-03-29T14:11:06.861Z,14.70
2023-03-29T14:13:36.454Z,14.60
2023-03-29T14:16:09.200Z,14.60
2023-03-29T14:18:40.503Z,14.50
2023-03-29T14:21:12.118Z,14.60
2023-03-29T14:23:42.094Z,14.60
2023-03-29T14:26:15.508Z,14.50
2023-03-29T14:28:46.883Z,14.50
2023-03-29T14:31:26.966Z,14.60
2023-03-29T14:33:56.305Z,14.60
2023-03-29T14:36:25.728Z,14.70
2023-03-29T14:38:57.941Z,14.70
2023-03-29T14:41:30.734Z,14.60
2023-03-29T14:43:59.825Z,14.70
2023-03-29T14:46:29.752Z,14.80
2023-03-29T14:48:58.383Z,14.90
2023-03-29T14:51:30.433Z,15.00
2023-03-29T14:54:00.008Z,14.90
2023-03-29T14:56:28.848Z,14.90
2023-03-29T14:59:00.164Z,15.00
2023-03-29T15:01:30.070Z,15.00
2023-03-29T15:04:03.819Z,15.00
2023-03-29T15:06:33.662Z,15.00
2023-03-29T15:09:06.061Z,15.00
2023-03-29T15:11:35.972Z,14.90
2023-03-29T15:14:07.139Z,15.00
2023-03-29T15:16:40.026Z,15.00
2023-03-29T15:19:08.499Z,14.90
2023-03-29T15:21:36.951Z,14.80
2023-03-29T15:24:06.099Z,14.90
2023-03-29T15:26:37.463Z,14.90
2023-03-29T15:29:13.000Z,15.00
2023-03-29T15:31:43.269Z,15.00
2023-03-29T15:34:14.114Z,15.00
2023-03-29T15:36:45.168Z,14.90
2023-03-29T15:39:14.573Z,15.00
2023-03-29T15:41:43.504Z,15.00
2023-03-29T15:44:12.527Z,15.00
2023-03-29T15:46:42.102Z,15.00
2023-03-29T15:49:12.427Z,15.00
2023-03-29T15:51:41.302Z,14.90
2023-03-29T15:54:09.511Z,14.80
2023-03-29T15:56:44.642Z,14.80
2023-03-29T15:59:13.936Z,14.80
2023-03-29T16:01:43.774Z,14.70
2023-03-29T16:04:14.263Z,14.70
2023-03-29T16:06:43.359Z,14.70
2023-03-29T16:09:12.920Z,14.70
2023-03-29T16:11:42.246Z,14.70
2023-03-29T16:14:20.968Z,14.70
2023-03-29T16:16:50.672Z,14.60
2023-03-29T16:19:19.530Z,14.50
2023-03-29T16:21:48.104Z,14.60
2023-03-29T16:24:19.588Z,14.50
2023-03-29T16:26:48.656Z,14.50
2023-03-29T16:29:17.363Z,14.40
2023-03-29T16:31:46.528Z,14.40
2023-03-29T16:34:18.843Z,14.40
2023-03-29T16:36:47.673Z,14.30
2023-03-29T16:39:17.342Z,14.30
2023-03-29T16:41:48.447Z,14.30
2023-03-29T16:44:21.698Z,14.20
2023-03-29T16:46:52.661Z,14.20
2023-03-29T16:49:22.447Z,14.20
2023-03-29T16:51:51.403Z,14.10
2023-03-29T16:54:19.969Z,14.20
2023-03-29T16:56:48.194Z,14.20
2023-03-29T16:59:16.682Z,14.20
2023-03-29T17:01:45.018Z,14.20
2023-03-29T17:04:13.508Z,14.20
2023-03-29T17:06:43.254Z,14.20
2023-03-29T17:09:17.739Z,14.20
2023-03-29T17:11:46.383Z,14.10
2023-03-29T17:14:14.801Z,14.10
2023-03-29T17:16:43.034Z,14.10
2023-03-29T17:19:11.286Z,14.00
2023-03-29T17:21:39.712Z,14.00
2023-03-29T17:24:10.524Z,14.00
2023-03-29T17:26:38.777Z,14.00
2023-03-29T17:29:07.101Z,14.00
2023-03-29T17:31:36.644Z,14.00
2023-03-29T17:34:05.083Z,14.00
2023-03-29T17:36:33.826Z,14.00
2023-03-29T17:39:03.078Z,14.10
2023-03-29T17:41:32.866Z,14.10
2023-03-29T17:44:01.173Z,14.10
2023-03-29T17:46:30.243Z,14.10
2023-03-29T17:48:59.160Z,14.10
2023-03-29T17:51:28.543Z,14.10
2023-03-29T17:53:57.191Z,14.10
2023-03-29T17:56:26.273Z,14.00
2023-03-29T17:58:56.707Z,14.10
2023-03-29T18:01:25.147Z,14.00
2023-03-29T18:03:53.508Z,14.00
2023-03-29T18:06:21.968Z,14.00
2023-03-29T18:08:50.328Z,14.00
2023-03-29T18:11:22.932Z,14.00
2023-03-29T18:13:51.860Z,14.00
2023-03-29T18:16:22.601Z,14.00
2023-03-29T18:18:51.036Z,14.00
2023-03-29T18:21:21.058Z,14.00
2023-03-29T18:23:52.932Z,14.00
2023-03-29T18:26:24.173Z,13.90
2023-03-29T18:28:52.555Z,13.90
2023-03-29T18:31:22.129Z,13.90
2023-03-29T18:33:50.342Z,13.80
2023-03-29T18:36:18.552Z,13.80
2023-03-29T18:38:47.077Z,13.80
2023-03-29T18:41:17.176Z,13.80
2023-03-29T18:43:46.829Z,13.80
2023-03-29T18:46:15.178Z,13.80
2023-03-29T18:48:44.846Z,13.70
2023-03-29T18:51:13.790Z,13.70
2023-03-29T18:53:44.301Z,13.70
2023-03-29T18:56:12.600Z,13.70
2023-03-29T18:58:40.920Z,13.70
2023-03-29T19:01:10.863Z,13.60
2023-03-29T19:03:39.462Z,13.60
2023-03-29T19:06:09.967Z,13.50
2023-03-29T19:08:39.706Z,13.50
2023-03-29T19:11:09.871Z,13.50
2023-03-29T19:13:38.427Z,13.50
2023-03-29T19:16:07.574Z,13.60
2023-03-29T19:18:36.741Z,13.50
2023-03-29T19:21:05.315Z,13.50
2023-03-29T19:23:34.939Z,13.50
2023-03-29T19:26:05.472Z,13.50
2023-03-29T19:28:34.716Z,13.60
2023-03-29T19:31:03.570Z,13.60
2023-03-29T19:33:31.915Z,13.60
2023-03-29T19:36:00.351Z,13.50
2023-03-29T19:38:28.619Z,13.50
2023-03-29T19:40:58.319Z,13.50
2023-03-29T19:43:27.085Z,13.50
2023-03-29T19:45:55.384Z,13.50
2023-03-29T19:48:24.840Z,13.50
2023-03-29T19:50:53.086Z,13.50
2023-03-29T19:53:23.226Z,13.50
2023-03-29T19:55:52.427Z,13.40
2023-03-29T19:58:22.360Z,13.40
2023-03-29T20:00:53.294Z,13.30
2023-03-29T20:03:22.435Z,13.40
2023-03-29T20:05:50.855Z,13.40
2023-03-29T20:08:19.274Z,13.40
2023-03-29T20:10:47.524Z,13.40
2023-03-29T20:13:24.536Z,13.40
2023-03-29T20:16:01.520Z,13.40
2023-03-29T20:18:29.702Z,13.40
2023-03-29T20:20:58.047Z,13.40
2023-03-29T20:23:26.689Z,13.40
2023-03-29T20:25:55.448Z,13.40
2023-03-29T20:28:23.822Z,13.30
2023-03-29T20:30:52.351Z,13.30
2023-03-29T20:33:25.699Z,13.30
2023-03-29T20:35:54.339Z,13.20
2023-03-29T20:38:22.952Z,13.20
2023-03-29T20:40:51.206Z,13.20
2023-03-29T20:43:20.182Z,13.20
2023-03-29T20:45:53.784Z,13.20
2023-03-29T20:48:24.800Z,13.20
2023-03-29T20:50:54.293Z,13.20
2023-03-29T20:53:22.651Z,13.20
2023-03-29T20:55:51.687Z,13.20
2023-03-29T20:58:20.120Z,13.20
2023-03-29T21:00:48.445Z,13.20
2023-03-29T21:03:16.925Z,13.10
2023-03-29T21:05:46.641Z,13.10
2023-03-29T21:08:18.212Z,13.10
2023-03-29T21:10:47.790Z,13.00
2023-03-29T21:13:16.067Z,13.00
2023-03-29T21:15:45.437Z,13.00
2023-03-29T21:18:13.646Z,13.00
2023-03-29T21:20:42.140Z,13.00
2023-03-29T21:23:11.701Z,13.00
2023-03-29T21:25:39.919Z,12.90
2023-03-29T21:28:08.195Z,12.90
2023-03-29T21:30:36.576Z,12.90
2023-03-29T21:33:04.827Z,12.80
2023-03-29T21:35:33.946Z,12.80
2023-03-29T21:38:03.995Z,12.80
2023-03-29T21:40:33.715Z,12.70
2023-03-29T21:43:01.978Z,12.80
2023-03-29T21:45:30.585Z,12.70
2023-03-29T21:47:58.888Z,12.70
2023-03-29T21:50:27.260Z,12.70
2023-03-29T21:52:55.639Z,12.70
2023-03-29T21:55:23.901Z,12.70
2023-03-29T21:57:53.511Z,12.70
2023-03-29T22:00:22.362Z,12.70
2023-03-29T22:02:50.662Z,12.80
2023-03-29T22:05:19.435Z,12.70
2023-03-29T22:07:50.449Z,12.70
2023-03-29T22:10:22.810Z,12.70
2023-03-29T22:12:51.817Z,12.70
2023-03-29T22:15:21.842Z,12.70
2023-03-29T22:17:50.455Z,12.70
2023-03-29T22:20:18.962Z,12.70
2023-03-29T22:22:49.870Z,12.60
2023-03-29T22:25:19.205Z,12.70
2023-03-29T22:27:49.012Z,12.60
2023-03-29T22:30:18.269Z,12.60
2023-03-29T22:32:47.868Z,12.60
2023-03-29T22:35:16.441Z,12.60
2023-03-29T22:37:45.554Z,12.50
2023-03-29T22:40:14.782Z,12.50
2023-03-29T22:42:43.069Z,12.40
2023-03-29T22:45:12.277Z,12.30
2023-03-29T22:47:40.616Z,12.30
2023-03-29T22:50:11.550Z,12.20
2023-03-29T22:52:40.468Z,12.20
2023-03-29T22:55:09.287Z,12.30
2023-03-29T22:57:37.507Z,12.20
2023-03-29T23:00:09.017Z,12.30
2023-03-29T23:02:37.914Z,12.20
2023-03-29T23:05:08.351Z,12.20
2023-03-29T23:07:37.933Z,12.10
2023-03-29T23:10:07.697Z,12.20
2023-03-29T23:12:38.393Z,12.20
2023-03-29T23:15:08.135Z,12.20
2023-03-29T23:17:37.183Z,12.20
2023-03-29T23:20:07.010Z,12.20
2023-03-29T23:22:36.384Z,12.20
2023-03-29T23:25:07.555Z,12.20
2023-03-29T23:27:35.801Z,12.20
2023-03-29T23:30:04.064Z,12.20
2023-03-29T23:32:32.438Z,12.20
2023-03-29T23:35:01.361Z,12.20
2023-03-29T23:37:29.528Z,12.30
2023-03-29T23:39:57.812Z,12.20
2023-03-29T23:42:27.373Z,12.20
2023-03-29T23:44:55.936Z,12.10
2023-03-29T23:47:24.201Z,12.10
2023-03-29T23:49:53.360Z,12.00
2023-03-29T23:52:23.144Z,12.00
2023-03-29T23:54:51.564Z,12.00
2023-03-29T23:57:19.822Z,12.10
2023-03-29T23:59:52.572Z,12.10
